PWSweather.com
Personal Weather Stations
Station Observations
PENICUIKWS
PenicuikGB

PenicuikGB

Lat: 55.830932, Lon: -3.224533000000065

Elevation: 166

Station Type: Fine Offset

http://weather.penicuik.org

High Low Average
Temperature 61.2°F16.2°C 45.1°F7.3°C 52.5°F11.4°C
Dew Point 56.3°F13.5°C 41.6°F5.3°C 47.3°F8.5°C
Winds 15.2 mph 24.5 kmh Calm Calm 6.0 mph SSW9.7 kmh SSW
Wind Gusts 26.6 mph42.8 kmh -- 10.0 mph16.1 kmh
Humidity 94% 57% 83%
Pressure 29.61 in1002.7 mb 29.15 in987.1 mb -
Precipitation 0.58 in14.7 mm - -
Hour Temp Dew Point Humidity Winds Wind Gusts Pressure Precip Precip Rate Daily Precip Total
12:28 AM 54.9°F12.7°C 51.1°F10.6°C 87% 3.1 mph E5.0 kmh E 3.1 mph5.0 kmh 29.52 in999.7 mb 0.01 in0.3 mm 0.02 in0.5 mm 0.01 in0.3 mm
12:58 AM 55.6°F13.1°C 49.5°F9.7°C 80% 8.3 mph NW13.4 kmh NW 8.3 mph13.4 kmh 29.54 in1000.3 mb 0.00 in0.0 mm 0.00 in0.0 mm 0.01 in0.3 mm
01:28 AM 55.4°F13.0°C 49.0°F9.4°C 79% 2.2 mph NW3.5 kmh NW 2.2 mph3.5 kmh 29.55 in1000.7 mb 0.00 in0.0 mm 0.00 in0.0 mm 0.01 in0.3 mm
01:58 AM 54.7°F12.6°C 48.3°F9.1°C 79% 3.1 mph ENE5.0 kmh ENE 3.1 mph5.0 kmh 29.55 in1000.7 mb 0.00 in0.0 mm 0.00 in0.0 mm 0.01 in0.3 mm
02:28 AM 53.8°F12.1°C 46.7°F8.2°C 77% 6.0 mph W9.7 kmh W 6.0 mph9.7 kmh 29.57 in1001.4 mb 0.00 in0.0 mm 0.00 in0.0 mm 0.01 in0.3 mm
02:58 AM 53.1°F11.7°C 43.9°F6.6°C 71% 2.2 mph NNW3.5 kmh NNW 2.2 mph3.5 kmh 29.55 in1000.7 mb 0.00 in0.0 mm 0.00 in0.0 mm 0.01 in0.3 mm
03:28 AM 51.8°F11.0°C 45.2°F7.3°C 78% 3.1 mph W5.0 kmh W 3.1 mph5.0 kmh 29.55 in1000.7 mb 0.00 in0.0 mm 0.00 in0.0 mm 0.01 in0.3 mm
03:58 AM 51.8°F11.0°C 45.5°F7.5°C 79% 0.7 mph N1.1 kmh N 0.7 mph1.1 kmh 29.56 in1001.0 mb 0.00 in0.0 mm 0.00 in0.0 mm 0.01 in0.3 mm
04:28 AM 50.4°F10.2°C 45.4°F7.4°C 83% Calm Calm -- 29.55 in1000.7 mb 0.00 in0.0 mm 0.00 in0.0 mm 0.01 in0.3 mm
04:58 AM 50.4°F10.2°C 45.7°F7.6°C 84% 1.6 mph NW2.6 kmh NW 1.6 mph2.6 kmh 29.55 in1000.7 mb 0.00 in0.0 mm 0.00 in0.0 mm 0.01 in0.3 mm
05:28 AM 50.4°F10.2°C 46.0°F7.8°C 85% 2.2 mph NNW3.5 kmh NNW 2.2 mph3.5 kmh 29.53 in1000.0 mb 0.00 in0.0 mm 0.00 in0.0 mm 0.01 in0.3 mm
05:58 AM 53.1°F11.7°C 49.3°F9.6°C 87% 3.8 mph NE6.1 kmh NE 3.8 mph6.1 kmh 29.50 in999.0 mb 0.00 in0.0 mm 0.00 in0.0 mm 0.01 in0.3 mm
06:30 AM 54.9°F12.7°C 48.1°F8.9°C 78% 4.9 mph SW7.9 kmh SW 9.2 mph14.8 kmh 29.47 in998.0 mb 0.00 in0.0 mm 0.00 in0.0 mm 0.01 in0.3 mm
07:00 AM 54.7°F12.6°C 46.6°F8.1°C 74% 1.8 mph NW2.9 kmh NW 2.2 mph3.5 kmh 29.45 in997.3 mb 0.00 in0.0 mm 0.00 in0.0 mm 0.01 in0.3 mm
07:15 AM 53.8°F12.1°C 47.4°F8.6°C 79% 1.1 mph NW1.8 kmh NW 2.2 mph3.5 kmh 29.43 in996.6 mb 0.00 in0.0 mm 0.00 in0.0 mm 0.01 in0.3 mm
07:30 AM 53.1°F11.7°C 48.4°F9.1°C 84% 0.7 mph N1.1 kmh N 1.6 mph2.6 kmh 29.42 in996.3 mb 0.04 in1.0 mm 0.16 in4.1 mm 0.05 in1.3 mm
07:45 AM 52.0°F11.1°C 48.8°F9.3°C 89% 1.9 mph SE3.1 kmh SE 6.0 mph9.7 kmh 29.40 in995.6 mb 0.12 in3.0 mm 0.32 in8.1 mm 0.13 in3.3 mm
08:00 AM 53.6°F12.0°C 51.3°F10.7°C 92% 7.0 mph SE11.3 kmh SE 10.7 mph17.2 kmh 29.37 in994.6 mb 0.18 in4.6 mm 0.08 in2.0 mm 0.19 in4.8 mm
08:15 AM 53.8°F12.1°C 51.8°F11.0°C 93% 10.6 mph E17.1 kmh E 17.4 mph28.0 kmh 29.36 in994.2 mb 0.19 in4.8 mm 0.04 in1.0 mm 0.20 in5.1 mm
08:30 AM 54.1°F12.3°C 51.9°F11.1°C 92% 9.0 mph SSW14.5 kmh SSW 15.9 mph25.6 kmh 29.36 in994.2 mb 0.18 in4.6 mm 0.00 in0.0 mm 0.22 in5.6 mm
08:45 AM 54.1°F12.3°C 52.2°F11.2°C 93% 6.5 mph S10.5 kmh S 9.8 mph15.8 kmh 29.33 in993.2 mb 0.09 in2.3 mm 0.00 in0.0 mm 0.22 in5.6 mm
09:00 AM 55.8°F13.2°C 54.1°F12.3°C 94% 8.3 mph S13.4 kmh S 13.0 mph20.9 kmh 29.29 in991.9 mb 0.05 in1.3 mm 0.00 in0.0 mm 0.24 in6.1 mm
09:15 AM 56.3°F13.5°C 53.4°F11.9°C 90% 9.7 mph SW15.6 kmh SW 15.2 mph24.5 kmh 29.27 in991.2 mb 0.04 in1.0 mm 0.00 in0.0 mm 0.24 in6.1 mm
09:30 AM 56.5°F13.6°C 53.3°F11.8°C 89% 9.4 mph SE15.1 kmh SE 17.4 mph28.0 kmh 29.24 in990.2 mb 0.01 in0.3 mm 0.00 in0.0 mm 0.24 in6.1 mm
09:45 AM 56.8°F13.8°C 53.3°F11.8°C 88% 12.2 mph SW19.6 kmh SW 15.9 mph25.6 kmh 29.23 in989.8 mb 0.01 in0.3 mm 0.00 in0.0 mm 0.24 in6.1 mm
10:00 AM 56.8°F13.8°C 53.9°F12.2°C 90% 12.5 mph SE20.1 kmh SE 17.4 mph28.0 kmh 29.21 in989.2 mb 0.01 in0.3 mm 0.00 in0.0 mm 0.25 in6.4 mm
10:15 AM 57.2°F14.0°C 54.6°F12.6°C 91% 13.0 mph S20.9 kmh S 20.6 mph33.2 kmh 29.18 in988.1 mb 0.02 in0.5 mm 0.04 in1.0 mm 0.26 in6.6 mm
10:30 AM 57.6°F14.2°C 55.3°F12.9°C 92% 15.2 mph SSW24.5 kmh SSW 26.6 mph42.8 kmh 29.15 in987.1 mb 0.05 in1.3 mm 0.12 in3.0 mm 0.28 in7.1 mm
10:45 AM 58.5°F14.7°C 56.2°F13.4°C 92% 11.8 mph NW19.0 kmh NW 20.6 mph33.2 kmh 29.16 in987.5 mb 0.06 in1.5 mm 0.04 in1.0 mm 0.30 in7.6 mm
11:00 AM 58.1°F14.5°C 55.8°F13.2°C 92% 9.6 mph WNW15.4 kmh WNW 15.9 mph25.6 kmh 29.16 in987.5 mb 0.15 in3.8 mm 0.12 in3.0 mm 0.40 in10.2 mm
11:15 AM 59.2°F15.1°C 56.3°F13.5°C 90% 8.1 mph E13.0 kmh E 13.0 mph20.9 kmh 29.17 in987.8 mb 0.14 in3.6 mm 0.00 in0.0 mm 0.40 in10.2 mm
11:45 AM 61.2°F16.2°C 46.3°F7.9°C 58% 12.5 mph SE20.1 kmh SE 22.8 mph36.7 kmh 29.19 in988.5 mb 0.11 in2.8 mm 0.00 in0.0 mm 0.40 in10.2 mm
12:00 PM 59.5°F15.3°C 44.3°F6.8°C 57% 9.7 mph NNE15.6 kmh NNE 15.9 mph25.6 kmh 29.21 in989.2 mb 0.00 in0.0 mm 0.00 in0.0 mm 0.40 in10.2 mm
12:15 PM 58.1°F14.5°C 45.2°F7.3°C 62% 8.7 mph SE14.0 kmh SE 13.0 mph20.9 kmh 29.22 in989.5 mb 0.00 in0.0 mm 0.00 in0.0 mm 0.40 in10.2 mm
12:30 PM 57.9°F14.4°C 45.4°F7.4°C 63% 10.0 mph E16.1 kmh E 16.8 mph27.0 kmh 29.23 in989.8 mb 0.00 in0.0 mm 0.00 in0.0 mm 0.40 in10.2 mm
12:45 PM 56.8°F13.8°C 46.0°F7.8°C 67% 8.7 mph NNW14.0 kmh NNW 17.4 mph28.0 kmh 29.24 in990.2 mb 0.00 in0.0 mm 0.00 in0.0 mm 0.40 in10.2 mm
01:00 PM 56.5°F13.6°C 46.8°F8.2°C 70% 7.6 mph E12.2 kmh E 14.5 mph23.3 kmh 29.26 in990.9 mb 0.00 in0.0 mm 0.00 in0.0 mm 0.40 in10.2 mm
01:15 PM 56.1°F13.4°C 47.6°F8.7°C 73% 10.2 mph W16.4 kmh W 20.6 mph33.2 kmh 29.27 in991.2 mb 0.00 in0.0 mm 0.00 in0.0 mm 0.40 in10.2 mm
01:30 PM 54.0°F12.2°C 47.9°F8.8°C 80% 5.9 mph N9.5 kmh N 9.8 mph15.8 kmh 29.29 in991.9 mb 0.01 in0.3 mm 0.04 in1.0 mm 0.41 in10.4 mm
01:45 PM 53.1°F11.7°C 48.7°F9.3°C 85% 8.3 mph NNE13.4 kmh NNE 13.6 mph21.9 kmh 29.32 in992.9 mb 0.04 in1.0 mm 0.12 in3.0 mm 0.44 in11.2 mm
02:00 PM 52.7°F11.5°C 48.6°F9.2°C 86% 9.1 mph SW14.6 kmh SW 15.9 mph25.6 kmh 29.33 in993.2 mb 0.04 in1.0 mm 0.00 in0.0 mm 0.44 in11.2 mm
02:15 PM 53.1°F11.7°C 49.0°F9.4°C 86% 8.9 mph S14.3 kmh S 15.9 mph25.6 kmh 29.36 in994.2 mb 0.04 in1.0 mm 0.00 in0.0 mm 0.44 in11.2 mm
02:30 PM 52.9°F11.6°C 48.5°F9.2°C 85% 8.5 mph NW13.7 kmh NW 15.2 mph24.5 kmh 29.36 in994.2 mb 0.04 in1.0 mm 0.00 in0.0 mm 0.45 in11.4 mm
02:45 PM 53.4°F11.9°C 49.0°F9.4°C 85% 9.4 mph SE15.1 kmh SE 17.4 mph28.0 kmh 29.39 in995.3 mb 0.02 in0.5 mm 0.00 in0.0 mm 0.46 in11.7 mm
03:00 PM 52.7°F11.5°C 48.6°F9.2°C 86% 7.7 mph NW12.4 kmh NW 13.6 mph21.9 kmh 29.40 in995.6 mb 0.02 in0.5 mm 0.00 in0.0 mm 0.46 in11.7 mm
03:15 PM 52.3°F11.3°C 48.3°F9.1°C 86% 7.8 mph SSW12.6 kmh SSW 13.0 mph20.9 kmh 29.41 in995.9 mb 0.02 in0.5 mm 0.00 in0.0 mm 0.46 in11.7 mm
03:30 PM 52.3°F11.3°C 48.0°F8.9°C 85% 5.4 mph SE8.7 kmh SE 8.3 mph13.4 kmh 29.43 in996.6 mb 0.02 in0.5 mm 0.00 in0.0 mm 0.47 in11.9 mm
03:45 PM 52.5°F11.4°C 47.8°F8.8°C 84% 8.6 mph WSW13.8 kmh WSW 19.7 mph31.7 kmh 29.44 in997.0 mb 0.01 in0.3 mm 0.00 in0.0 mm 0.47 in11.9 mm
04:00 PM 52.3°F11.3°C 47.0°F8.3°C 82% 6.4 mph N10.3 kmh N 13.0 mph20.9 kmh 29.45 in997.3 mb 0.01 in0.3 mm 0.00 in0.0 mm 0.47 in11.9 mm
04:15 PM 51.6°F10.9°C 46.3°F7.9°C 82% 7.0 mph WSW11.3 kmh WSW 15.9 mph25.6 kmh 29.46 in997.6 mb 0.01 in0.3 mm 0.00 in0.0 mm 0.47 in11.9 mm
04:45 PM 49.1°F9.5°C 44.5°F6.9°C 84% 7.1 mph NW11.4 kmh NW 11.4 mph18.3 kmh 29.50 in999.0 mb 0.04 in1.0 mm 0.06 in1.5 mm 0.51 in13.0 mm
05:00 PM 49.5°F9.7°C 44.8°F7.1°C 84% 5.2 mph NNW8.4 kmh NNW 8.3 mph13.4 kmh 29.51 in999.3 mb 0.04 in1.0 mm 0.00 in0.0 mm 0.51 in13.0 mm
05:15 PM 50.0°F10.0°C 44.4°F6.9°C 81% 5.9 mph NW9.5 kmh NW 10.7 mph17.2 kmh 29.52 in999.7 mb 0.04 in1.0 mm 0.00 in0.0 mm 0.51 in13.0 mm
05:30 PM 50.0°F10.0°C 43.1°F6.2°C 77% 6.6 mph NW10.6 kmh NW 11.4 mph18.3 kmh 29.52 in999.7 mb 0.00 in0.0 mm 0.00 in0.0 mm 0.51 in13.0 mm
07:30 PM 46.0°F7.8°C 43.3°F6.3°C 90% 4.8 mph NNW7.7 kmh NNW 9.2 mph14.8 kmh 29.59 in1002.0 mb 0.06 in1.5 mm 0.00 in0.0 mm 0.58 in14.7 mm
08:00 PM 45.5°F7.5°C 43.0°F6.1°C 91% 2.1 mph W3.4 kmh W 3.8 mph6.1 kmh 29.60 in1002.4 mb 0.04 in1.0 mm 0.00 in0.0 mm 0.58 in14.7 mm
08:15 PM 45.1°F7.3°C 42.7°F5.9°C 91% 3.1 mph NW5.0 kmh NW 4.5 mph7.2 kmh 29.60 in1002.4 mb 0.00 in0.0 mm 0.00 in0.0 mm 0.58 in14.7 mm
08:30 PM 45.1°F7.3°C 42.7°F5.9°C 91% 2.3 mph WSW3.7 kmh WSW 3.1 mph5.0 kmh 29.60 in1002.4 mb 0.00 in0.0 mm 0.00 in0.0 mm 0.58 in14.7 mm
08:45 PM 45.1°F7.3°C 42.4°F5.8°C 90% 3.7 mph NW6.0 kmh NW 8.3 mph13.4 kmh 29.60 in1002.4 mb 0.00 in0.0 mm 0.00 in0.0 mm 0.58 in14.7 mm
09:00 PM 45.9°F7.7°C 42.5°F5.8°C 88% 3.9 mph W6.3 kmh W 6.9 mph11.1 kmh 29.60 in1002.4 mb 0.00 in0.0 mm 0.00 in0.0 mm 0.58 in14.7 mm
09:15 PM 45.9°F7.7°C 41.9°F5.5°C 86% 2.6 mph N4.2 kmh N 3.8 mph6.1 kmh 29.60 in1002.4 mb 0.00 in0.0 mm 0.00 in0.0 mm 0.58 in14.7 mm
09:30 PM 45.7°F7.6°C 41.7°F5.4°C 86% 3.1 mph N5.0 kmh N 4.5 mph7.2 kmh 29.60 in1002.4 mb 0.00 in0.0 mm 0.00 in0.0 mm 0.58 in14.7 mm
09:45 PM 45.7°F7.6°C 41.7°F5.4°C 86% 3.4 mph N5.5 kmh N 9.2 mph14.8 kmh 29.61 in1002.7 mb 0.00 in0.0 mm 0.00 in0.0 mm 0.58 in14.7 mm
10:15 PM 46.4°F8.0°C 42.1°F5.6°C 85% 4.3 mph NE6.9 kmh NE 8.3 mph13.4 kmh 29.61 in1002.7 mb 0.00 in0.0 mm 0.00 in0.0 mm 0.58 in14.7 mm
10:30 PM 46.8°F8.2°C 41.9°F5.5°C 83% 3.8 mph N6.1 kmh N 6.9 mph11.1 kmh 29.61 in1002.7 mb 0.00 in0.0 mm 0.00 in0.0 mm 0.58 in14.7 mm
10:45 PM 47.1°F8.4°C 41.9°F5.5°C 82% 4.9 mph N7.9 kmh N 9.2 mph14.8 kmh 29.60 in1002.4 mb 0.00 in0.0 mm 0.00 in0.0 mm 0.58 in14.7 mm
11:00 PM 47.5°F8.6°C 41.6°F5.3°C 80% 5.5 mph W8.9 kmh W 9.2 mph14.8 kmh 29.61 in1002.7 mb 0.00 in0.0 mm 0.00 in0.0 mm 0.47 in11.9 mm
11:15 PM 47.7°F8.7°C 41.8°F5.4°C 80% 3.5 mph SE5.6 kmh SE 5.4 mph8.7 kmh 29.61 in1002.7 mb 0.00 in0.0 mm 0.00 in0.0 mm 0.47 in11.9 mm
11:30 PM 48.7°F9.3°C 42.5°F5.8°C 79% 5.4 mph W8.7 kmh W 8.3 mph13.4 kmh 29.61 in1002.7 mb 0.00 in0.0 mm 0.00 in0.0 mm 0.47 in11.9 mm
11:45 PM 48.9°F9.4°C 42.4°F5.8°C 78% 5.9 mph SW9.5 kmh SW 9.2 mph14.8 kmh 29.61 in1002.7 mb 0.00 in0.0 mm 0.00 in0.0 mm 0.47 in11.9 mm